Terminal Aerodrome Forecast
Issued by NWS

Home | Current Version | Previous Version | Text Only | Print | Product List | Glossary On
Versions: 1 2 3 4 5 6 7 8 9 10 11 12 13 14 15 16 17 18 19 20 21 22 23 24 25 26 27 28 29 30
000
FTUS43 KDLH 201746
TAFBRD
TAF
KBRD 201746Z 2018/2118 29009KT 1/2SM -SHSN HZ BKN030 OVC050
     FM201900 29009KT 4SM HZ VCSH BKN030 OVC050
     FM202000 30011KT P6SM BKN025 OVC050
     FM210100 30009KT P6SM BKN040
     FM210300 29009KT P6SM SCT040
     FM210500 28008KT P6SM SCT130=

USA.gov is the U.S. government's official web portal to all federal, state and local government web resources and services.